Time;durP1;ratioP1;P1;durP2;ratioP2;P2;SDS_P1;SDS_P2;PMS_P1;PMS_P2;Temp;Humidity;BMP_temperature;BMP_pressure;BME280_temperature;BME280_humidity;BME280_pressure;Samples;Min_cycle;Max_cycle;Signal;HPM_P1;HPM_P2
2022/07/15 05:24:11;;;;;;;;;;;;;;;29.39;52.15;98234.00;5358990;24;19974;-71
2022/07/15 05:26:59;;;;;;;;;;;;;;;29.08;57.58;98225.63;4776349;30;19961;-71
2022/07/15 05:29:31;;;;;;;;;;;;;;;29.19;54.39;98237.16;4777264;29;20660;-72
2022/07/15 05:31:58;;;;;;;;;;;;;;;29.03;52.51;98247.34;4769699;30;20215;-72
2022/07/15 05:34:27;;;;;;;;;;;;;;;28.82;52.54;98242.38;4781844;29;19974;-72
2022/07/15 05:36:57;;;;;;;;;;;;;;;28.62;51.60;98237.66;4776892;29;19969;-72
2022/07/15 05:39:24;;;;;;;;;;;;;;;28.46;52.82;98238.41;4775168;30;20252;-72
2022/07/15 05:41:54;;;;;;;;;;;;;;;28.50;53.74;98245.47;4760720;30;19952;-72
2022/07/15 05:44:21;;;;;;;;;;;;;;;28.42;52.80;98238.66;4774509;30;19948;-71
2022/07/15 05:46:50;;;;;;;;;;;;;;;28.38;56.00;98237.34;4806514;29;19960;-70
2022/07/15 05:49:19;;;;;;;;;;;;;;;28.51;52.97;98241.28;4807457;29;19949;-71
2022/07/15 05:51:50;;;;;;;;;;;;;;;28.60;52.76;98237.41;4778772;30;20221;-71
2022/07/15 05:54:18;;;;;;;;;;;;;;;28.64;52.69;98246.56;4788731;30;20235;-71
2022/07/15 05:56:46;;;;;;;;;;;;;;;28.79;52.07;98247.09;4784235;29;19983;-70
2022/07/15 05:59:20;;;;;;;;;;;;;;;28.85;52.75;98239.25;4784684;29;19952;-71
2022/07/15 06:01:47;;;;;;;;;;;;;;;28.85;52.45;98236.38;4779856;30;19960;-72
2022/07/15 06:04:15;;;;;;;;;;;;;;;29.09;50.86;98236.63;4777734;30;20369;-72
2022/07/15 06:06:45;;;;;;;;;;;;;;;29.31;50.78;98249.44;4786998;29;19959;-72
2022/07/15 06:09:13;;;;;;;;;;;;;;;29.35;48.76;98241.31;4789041;29;19956;-72
2022/07/15 06:11:40;;;;;;;;;;;;;;;29.39;49.60;98245.50;4781691;30;20254;-72
2022/07/15 06:14:08;;;;;;;;;;;;;;;29.35;50.34;98244.19;4779375;30;19985;-72
2022/07/15 06:16:36;;;;;;;;;;;;;;;29.37;50.95;98250.22;4781942;29;19977;-72
2022/07/15 06:19:05;;;;;;;;;;;;;;;29.46;50.30;98244.19;4790561;29;19958;-72
2022/07/15 06:21:32;;;;;;;;;;;;;;;29.32;50.06;98246.03;4784419;30;20333;-72
2022/07/15 06:23:59;;;;;;;;;;;;;;;29.39;50.20;98251.28;4780633;30;20365;-72
2022/07/15 06:26:27;;;;;;;;;;;;;;;29.44;50.45;98241.84;4808461;29;19956;-72
2022/07/15 06:28:54;;;;;;;;;;;;;;;29.59;50.39;98247.31;4807650;29;19959;-72
2022/07/15 06:31:21;;;;;;;;;;;;;;;29.55;51.03;98253.31;4793146;29;19954;-72
2022/07/15 06:33:49;;;;;;;;;;;;;;;29.64;51.54;98250.16;4793079;29;19978;-72
2022/07/15 06:36:25;;;;;;;;;;;;;;;29.73;51.13;98254.84;4787689;29;19947;-72
2022/07/15 06:38:52;;;;;;;;;;;;;;;29.88;51.75;98249.59;4808002;29;19961;-72
2022/07/15 06:41:19;;;;;;;;;;;;;;;29.79;51.68;98258.50;4793376;30;19956;-72
2022/07/15 06:43:50;;;;;;;;;;;;;;;29.85;52.56;98259.28;4777818;30;19956;-71
2022/07/15 06:46:34;;;;;;;;;;;;;;;29.88;52.96;98259.00;4782310;29;20214;-71
2022/07/15 06:49:03;;;;;;;;;;;;;;;30.03;52.52;98264.44;4793160;29;19958;-69
2022/07/15 06:51:30;;;;;;;;;;;;;;;30.18;53.45;98259.13;4795475;29;19960;-69
2022/07/15 06:53:58;;;;;;;;;;;;;;;30.18;50.47;98259.13;4785531;29;19961;-69
2022/07/15 06:56:29;;;;;;;;;;;;;;;30.25;52.36;98252.03;4778269;29;19955;-69
2022/07/15 06:58:56;;;;;;;;;;;;;;;30.23;51.46;98261.19;4797194;29;19958;-69
2022/07/15 07:01:24;;;;;;;;;;;;;;;30.28;51.65;98256.72;4779033;30;19951;-69
2022/07/15 07:03:52;;;;;;;;;;;;;;;30.24;52.13;98250.44;4806580;29;19964;-69
2022/07/15 07:06:25;;;;;;;;;;;;;;;30.31;51.38;98250.69;4793957;29;19954;-69
2022/07/15 07:08:52;;;;;;;;;;;;;;;30.38;51.82;98249.34;4794013;29;19959;-69
2022/07/15 07:11:20;;;;;;;;;;;;;;;30.25;55.28;98246.25;4790350;29;19959;-69
2022/07/15 07:13:48;;;;;;;;;;;;;;;30.39;54.14;98251.72;4792780;30;19957;-69
2022/07/15 07:16:16;;;;;;;;;;;;;;;30.55;53.10;98258.69;4792280;29;19948;-69
2022/07/15 07:18:45;;;;;;;;;;;;;;;30.66;53.95;98246.28;4792505;30;19965;-69
2022/07/15 07:21:13;;;;;;;;;;;;;;;30.68;54.66;98249.41;4787551;29;19964;-69
2022/07/15 07:23:41;;;;;;;;;;;;;;;30.85;53.33;98250.06;4776565;29;20263;-69
2022/07/15 07:26:08;;;;;;;;;;;;;;;30.92;53.03;98247.41;4792430;29;19952;-69
2022/07/15 07:28:38;;;;;;;;;;;;;;;31.02;52.31;98250.75;4792890;29;19956;-69
2022/07/15 07:31:06;;;;;;;;;;;;;;;31.06;53.83;98257.00;4790994;29;19969;-70
2022/07/15 07:33:33;;;;;;;;;;;;;;;30.95;51.74;98252.13;4764523;30;19955;-69
2022/07/15 07:36:01;;;;;;;;;;;;;;;31.04;55.74;98248.09;4785044;29;19958;-70
2022/07/15 07:38:28;;;;;;;;;;;;;;;31.12;52.59;98252.75;4791666;29;20362;-69
2022/07/15 07:40:55;;;;;;;;;;;;;;;31.28;53.55;98253.16;4803398;29;19950;-69
2022/07/15 07:43:22;;;;;;;;;;;;;;;31.37;51.10;98258.56;4789449;29;20249;-69
2022/07/15 07:45:50;;;;;;;;;;;;;;;31.23;46.92;98243.19;4789608;30;19959;-69
2022/07/15 07:48:17;;;;;;;;;;;;;;;31.25;48.43;98249.25;4790112;29;19958;-69
2022/07/15 07:50:45;;;;;;;;;;;;;;;31.24;50.79;98256.31;4791325;29;19965;-69
2022/07/15 07:53:12;;;;;;;;;;;;;;;31.12;48.95;98247.00;4790885;30;19964;-69
2022/07/15 07:55:39;;;;;;;;;;;;;;;31.25;49.10;98252.13;4789873;29;19951;-69
2022/07/15 07:58:07;;;;;;;;;;;;;;;31.24;51.01;98253.44;4788137;29;20358;-69
2022/07/15 08:00:34;;;;;;;;;;;;;;;31.27;45.99;98243.69;4784265;30;19961;-69
2022/07/15 08:03:01;;;;;;;;;;;;;;;31.41;47.97;98245.38;4791980;30;19956;-69
2022/07/15 08:05:29;;;;;;;;;;;;;;;31.36;49.93;98245.44;4791158;30;19965;-69
2022/07/15 08:08:06;;;;;;;;;;;;;;;31.42;51.17;98246.97;4779867;30;19960;-69
2022/07/15 08:10:33;;;;;;;;;;;;;;;31.49;48.23;98248.50;4791173;30;19958;-69
2022/07/15 08:13:01;;;;;;;;;;;;;;;31.50;50.11;98239.25;4791829;29;19958;-69
2022/07/15 08:15:28;;;;;;;;;;;;;;;31.51;52.84;98235.06;4792764;29;19957;-69
2022/07/15 08:17:56;;;;;;;;;;;;;;;31.30;53.40;98236.81;4791573;30;19967;-69
2022/07/15 08:20:23;;;;;;;;;;;;;;;31.25;50.43;98231.91;4791730;30;19955;-69
2022/07/15 08:22:57;;;;;;;;;;;;;;;31.43;53.38;98239.06;4792311;29;20564;-69
2022/07/15 08:25:26;;;;;;;;;;;;;;;31.33;46.82;98244.41;4791275;30;20256;-69
2022/07/15 08:27:53;;;;;;;;;;;;;;;31.39;50.25;98233.59;4794375;29;19948;-69
2022/07/15 08:30:21;;;;;;;;;;;;;;;31.36;49.49;98228.88;4791243;30;19957;-69
2022/07/15 08:32:48;;;;;;;;;;;;;;;31.54;55.00;98213.75;4791674;30;19952;-69
2022/07/15 08:35:15;;;;;;;;;;;;;;;31.50;50.47;98227.72;4791350;30;19969;-69
2022/07/15 08:37:45;;;;;;;;;;;;;;;31.58;50.03;98222.09;4790833;30;19977;-69
2022/07/15 08:40:12;;;;;;;;;;;;;;;31.74;50.80;98226.94;4794335;29;19958;-69
2022/07/15 08:42:42;;;;;;;;;;;;;;;31.96;51.96;98220.09;4790853;30;19945;-69
2022/07/15 08:45:10;;;;;;;;;;;;;;;31.95;50.91;98230.88;4790943;30;19960;-69
2022/07/15 08:47:39;;;;;;;;;;;;;;;31.62;51.77;98216.81;4792030;30;19956;-69
2022/07/15 08:50:22;;;;;;;;;;;;;;;31.72;50.60;98221.66;4776140;30;19952;-69
2022/07/15 08:52:51;;;;;;;;;;;;;;;31.88;50.65;98219.13;4791735;30;19981;-69
2022/07/15 08:55:19;;;;;;;;;;;;;;;31.94;49.13;98214.06;4791581;30;20369;-69
2022/07/15 08:57:50;;;;;;;;;;;;;;;31.91;45.33;98215.16;4791007;30;19975;-69
2022/07/15 09:00:18;;;;;;;;;;;;;;;32.03;45.83;98211.59;4792162;29;19961;-69
2022/07/15 09:02:46;;;;;;;;;;;;;;;31.78;47.57;98205.06;4791312;29;20245;-69
2022/07/15 09:05:26;;;;;;;;;;;;;;;32.03;41.16;98213.69;4796435;29;19954;-69
2022/07/15 09:07:58;;;;;;;;;;;;;;;32.03;44.33;98213.69;4790969;29;19949;-69
2022/07/15 09:10:43;;;;;;;;;;;;;;;31.88;43.59;98211.22;4790162;30;19952;-69
2022/07/15 09:13:12;;;;;;;;;;;;;;;31.92;40.88;98213.81;4786953;30;20336;-69
2022/07/15 09:15:40;;;;;;;;;;;;;;;31.66;42.68;98212.28;4791280;30;19962;-69
2022/07/15 09:18:10;;;;;;;;;;;;;;;31.64;46.93;98206.25;4790900;30;19976;-69
2022/07/15 09:20:38;;;;;;;;;;;;;;;31.69;42.56;98211.19;4775054;30;19956;-69
2022/07/15 09:23:05;;;;;;;;;;;;;;;31.60;43.46;98210.78;4790690;30;19952;-69
2022/07/15 09:25:33;;;;;;;;;;;;;;;31.82;45.03;98199.72;4775428;30;19964;-69
2022/07/15 09:28:02;;;;;;;;;;;;;;;31.93;49.06;98198.81;4790847;30;19950;-69
2022/07/15 09:36:03;;;;;;;;;;;;;;;31.99;43.06;98208.22;4791030;30;19952;-69
2022/07/15 09:38:51;;;;;;;;;;;;;;;31.93;44.81;98200.91;4790777;30;20000;-69
2022/07/15 09:41:18;;;;;;;;;;;;;;;31.80;42.38;98208.19;4791002;29;19947;-69
2022/07/15 09:43:50;;;;;;;;;;;;;;;31.80;44.47;98196.59;4784215;29;20357;-69
2022/07/15 09:46:20;;;;;;;;;;;;;;;31.94;42.95;98193.81;4786805;30;20252;-70
2022/07/15 09:48:49;;;;;;;;;;;;;;;32.15;40.28;98189.06;4790013;30;19959;-70
2022/07/15 09:51:16;;;;;;;;;;;;;;;32.14;43.03;98190.38;4793194;29;19950;-71
2022/07/15 09:53:45;;;;;;;;;;;;;;;32.28;44.07;98189.91;4798659;29;19951;-70
2022/07/15 09:56:14;;;;;;;;;;;;;;;32.45;44.65;98193.34;4791590;29;20222;-70
2022/07/15 09:58:43;;;;;;;;;;;;;;;32.52;42.50;98186.19;4785379;30;19968;-70
2022/07/15 10:01:11;;;;;;;;;;;;;;;32.26;45.16;98186.78;4779278;30;19955;-70
2022/07/15 10:03:38;;;;;;;;;;;;;;;32.35;41.86;98180.59;4790153;29;19960;-70
2022/07/15 10:06:06;;;;;;;;;;;;;;;32.27;43.22;98190.47;4789960;29;20238;-70
2022/07/15 10:08:34;;;;;;;;;;;;;;;32.29;43.60;98171.22;4790455;30;19960;-70
2022/07/15 10:11:07;;;;;;;;;;;;;;;32.22;41.95;98179.75;4790740;30;19958;-70
2022/07/15 10:13:35;;;;;;;;;;;;;;;32.36;44.71;98178.50;4790600;30;19951;-70
2022/07/15 10:16:14;;;;;;;;;;;;;;;32.26;41.15;98168.63;4791164;29;19955;-70
2022/07/15 10:19:06;;;;;;;;;;;;;;;32.53;42.58;98173.25;4790571;29;20388;-70
2022/07/15 10:21:34;;;;;;;;;;;;;;;32.56;43.44;98172.16;4790307;30;20029;-70
2022/07/15 10:24:19;;;;;;;;;;;;;;;32.60;43.91;98157.38;4789915;30;19989;-70
2022/07/15 10:26:49;;;;;;;;;;;;;;;32.71;44.69;98155.06;4790701;30;19949;-70
2022/07/15 10:29:16;;;;;;;;;;;;;;;32.91;42.06;98163.16;4789886;30;19950;-70
2022/07/15 10:31:44;;;;;;;;;;;;;;;33.05;43.48;98158.97;4774569;30;20379;-70
2022/07/15 10:34:11;;;;;;;;;;;;;;;33.01;41.26;98161.34;4791450;29;20243;-70
2022/07/15 10:36:40;;;;;;;;;;;;;;;32.86;38.70;98155.34;4793532;30;20365;-70
2022/07/15 10:39:08;;;;;;;;;;;;;;;33.06;38.83;98154.72;4793326;30;19971;-70
2022/07/15 10:41:54;;;;;;;;;;;;;;;33.19;39.76;98161.84;4793805;30;20253;-71
2022/07/15 10:44:22;;;;;;;;;;;;;;;33.17;38.76;98150.03;4792458;29;19954;-72
2022/07/15 10:47:08;;;;;;;;;;;;;;;33.28;37.77;98156.44;4779758;30;19959;-72
2022/07/15 10:49:35;;;;;;;;;;;;;;;33.31;40.04;98148.72;4789756;30;19953;-71
2022/07/15 10:52:13;;;;;;;;;;;;;;;33.35;39.24;98137.59;4793470;30;19965;-74
2022/07/15 10:54:44;;;;;;;;;;;;;;;33.34;38.03;98136.00;4788559;30;19949;-69
2022/07/15 10:57:13;;;;;;;;;;;;;;;33.17;38.44;98135.56;4786534;29;19947;-69
2022/07/15 10:59:48;;;;;;;;;;;;;;;33.27;38.85;98134.56;4794832;29;19968;-69
2022/07/15 11:02:16;;;;;;;;;;;;;;;33.27;38.21;98134.56;4794056;29;19976;-69
2022/07/15 11:04:44;;;;;;;;;;;;;;;33.22;39.84;98123.06;4802620;29;19965;-69
2022/07/15 11:07:14;;;;;;;;;;;;;;;33.28;38.90;98121.66;4804238;29;20351;-69
2022/07/15 11:09:44;;;;;;;;;;;;;;;33.18;37.82;98117.63;4796851;29;19957;-70
2022/07/15 11:12:17;;;;;;;;;;;;;;;33.04;41.84;98119.72;4793984;29;19958;-70
2022/07/15 11:14:45;;;;;;;;;;;;;;;33.25;42.44;98107.47;4798083;29;19953;-70
2022/07/15 11:17:16;;;;;;;;;;;;;;;33.30;39.24;98110.28;4795525;29;19963;-70
2022/07/15 11:19:48;;;;;;;;;;;;;;;33.34;40.89;98101.22;4801611;29;19999;-71
2022/07/15 11:22:20;;;;;;;;;;;;;;;33.33;40.24;98105.47;4792810;29;19955;-70
2022/07/15 11:24:47;;;;;;;;;;;;;;;33.32;37.74;98104.69;4794052;29;19981;-70
2022/07/15 11:27:14;;;;;;;;;;;;;;;33.39;39.63;98109.03;4796312;29;19953;-70
2022/07/15 11:29:42;;;;;;;;;;;;;;;33.49;37.65;98107.25;4805433;29;19956;-70
2022/07/15 11:32:10;;;;;;;;;;;;;;;33.33;37.94;98106.22;4798663;29;19963;-70
2022/07/15 11:34:42;;;;;;;;;;;;;;;33.37;38.96;98111.72;4797627;29;19969;-70
2022/07/15 11:37:10;;;;;;;;;;;;;;;33.27;37.08;98099.78;4803330;29;19951;-70
2022/07/15 11:39:38;;;;;;;;;;;;;;;33.47;38.15;98096.22;4792871;29;19970;-71
2022/07/15 11:44:51;;;;;;;;;;;;;;;33.64;37.82;98099.56;4792680;29;19959;-71
2022/07/15 11:47:19;;;;;;;;;;;;;;;33.77;37.74;98107.47;4796776;29;19959;-70
2022/07/15 11:49:49;;;;;;;;;;;;;;;33.65;35.82;98095.31;4792499;30;19959;-71
2022/07/15 11:52:24;;;;;;;;;;;;;;;33.57;37.30;98091.56;4799426;29;19951;-71
2022/07/15 11:54:51;;;;;;;;;;;;;;;33.66;36.50;98090.28;4793215;29;19949;-70
2022/07/15 11:57:19;;;;;;;;;;;;;;;33.67;37.58;98086.06;4792693;30;19952;-70
2022/07/15 11:59:56;;;;;;;;;;;;;;;33.77;35.83;98092.19;4792192;30;19980;-70
2022/07/15 12:02:24;;;;;;;;;;;;;;;33.79;36.85;98087.38;4796561;29;19956;-69
2022/07/15 12:05:00;;;;;;;;;;;;;;;33.67;37.38;98089.72;4783783;29;19970;-70
2022/07/15 12:07:47;;;;;;;;;;;;;;;33.80;36.22;98088.91;4793617;29;19956;-70
2022/07/15 12:10:15;;;;;;;;;;;;;;;33.81;37.50;98078.88;4792679;29;19952;-70
2022/07/15 12:12:52;;;;;;;;;;;;;;;33.76;38.21;98085.59;4792358;30;20285;-70
2022/07/15 12:15:20;;;;;;;;;;;;;;;34.01;37.09;98075.25;4792379;30;19950;-70
2022/07/15 12:17:48;;;;;;;;;;;;;;;34.00;38.43;98072.91;4791895;29;19955;-70
2022/07/15 12:20:15;;;;;;;;;;;;;;;34.01;34.95;98071.56;4778158;30;19969;-71
2022/07/15 12:23:05;;;;;;;;;;;;;;;33.93;38.62;98074.38;4792742;29;19966;-71
2022/07/15 12:25:32;;;;;;;;;;;;;;;33.92;38.13;98069.91;4796966;29;19978;-71
2022/07/15 12:28:00;;;;;;;;;;;;;;;33.96;40.12;98061.66;4798947;29;19961;-71
2022/07/15 12:30:34;;;;;;;;;;;;;;;33.97;37.79;98068.22;4794545;29;19963;-71
2022/07/15 12:33:18;;;;;;;;;;;;;;;33.94;37.47;98055.66;4791644;29;19959;-70
2022/07/15 12:35:46;;;;;;;;;;;;;;;33.93;37.12;98059.09;4791853;30;19958;-70
2022/07/15 12:38:30;;;;;;;;;;;;;;;33.89;37.11;98065.25;4791720;30;19958;-70
2022/07/15 12:41:05;;;;;;;;;;;;;;;34.04;37.80;98058.84;4803186;29;19982;-70
2022/07/15 12:43:48;;;;;;;;;;;;;;;34.07;39.14;98061.41;4800694;29;20096;-70
2022/07/15 12:46:16;;;;;;;;;;;;;;;34.23;36.89;98060.25;4794571;29;19956;-70
2022/07/15 12:48:45;;;;;;;;;;;;;;;34.27;36.50;98059.88;4786617;29;19964;-71
2022/07/15 12:51:12;;;;;;;;;;;;;;;34.50;37.37;98057.19;4791137;29;19976;-71
2022/07/15 12:53:41;;;;;;;;;;;;;;;34.56;35.94;98061.53;4793721;29;19958;-71
2022/07/15 12:56:08;;;;;;;;;;;;;;;34.52;37.70;98051.59;4784949;29;19966;-71
2022/07/15 12:58:37;;;;;;;;;;;;;;;34.47;37.72;98058.31;4801744;29;19959;-70
2022/07/15 13:01:06;;;;;;;;;;;;;;;34.44;35.34;98053.63;4793862;29;19970;-70
2022/07/15 13:03:34;;;;;;;;;;;;;;;34.37;34.30;98063.84;4789668;29;19955;-70
2022/07/15 13:06:02;;;;;;;;;;;;;;;34.35;35.74;98055.72;4794112;29;19961;-71
2022/07/15 13:08:34;;;;;;;;;;;;;;;34.19;35.69;98053.19;4794403;29;19969;-70
2022/07/15 13:11:03;;;;;;;;;;;;;;;34.08;35.32;98048.47;4794734;29;19951;-71
2022/07/15 13:13:33;;;;;;;;;;;;;;;34.21;36.73;98033.88;4805638;29;19948;-70
2022/07/15 13:16:01;;;;;;;;;;;;;;;34.36;35.46;98042.75;4800009;29;19960;-70
2022/07/15 13:18:29;;;;;;;;;;;;;;;34.49;34.38;98033.19;4795638;29;19950;-71
2022/07/15 13:20:57;;;;;;;;;;;;;;;34.69;32.70;98034.53;4794002;29;19969;-70
2022/07/15 13:23:26;;;;;;;;;;;;;;;34.55;33.10;98030.94;4797014;29;19951;-71
2022/07/15 13:25:54;;;;;;;;;;;;;;;34.58;34.91;98026.88;4803707;29;19962;-71
2022/07/15 13:28:22;;;;;;;;;;;;;;;34.58;34.93;98031.94;4795682;29;19958;-71
2022/07/15 13:30:49;;;;;;;;;;;;;;;34.62;34.52;98026.53;4797304;29;20234;-70
2022/07/15 13:33:17;;;;;;;;;;;;;;;34.74;35.23;98025.66;4794287;29;19955;-70
2022/07/15 13:35:44;;;;;;;;;;;;;;;34.87;33.41;98042.22;4805789;29;19969;-70
2022/07/15 13:38:12;;;;;;;;;;;;;;;34.92;33.03;98029.69;4799910;29;20324;-70
2022/07/15 13:40:40;;;;;;;;;;;;;;;34.79;36.66;98026.88;4800756;29;20017;-70
2022/07/15 13:43:07;;;;;;;;;;;;;;;34.78;31.86;98031.88;4800635;29;20339;-70
2022/07/15 13:45:34;;;;;;;;;;;;;;;34.89;32.58;98033.72;4795770;29;19953;-71
2022/07/15 13:48:02;;;;;;;;;;;;;;;35.08;32.80;98030.56;4791395;29;19956;-71
2022/07/15 13:53:15;;;;;;;;;;;;;;;35.07;33.67;98026.88;4790765;30;19986;-70
2022/07/15 13:55:43;;;;;;;;;;;;;;;34.97;36.00;98026.59;4794823;29;20261;-70
2022/07/15 13:58:13;;;;;;;;;;;;;;;34.99;36.66;98020.22;4793187;29;19984;-70
2022/07/15 14:00:40;;;;;;;;;;;;;;;34.99;35.99;98011.50;4790798;29;20359;-71
2022/07/15 14:03:08;;;;;;;;;;;;;;;34.89;34.50;98034.50;4804362;29;19956;-71
2022/07/15 14:05:36;;;;;;;;;;;;;;;34.96;34.69;98025.06;4800799;29;19955;-71
2022/07/15 14:08:03;;;;;;;;;;;;;;;34.94;35.91;98027.75;4790788;29;19963;-71
2022/07/15 14:10:31;;;;;;;;;;;;;;;34.83;40.59;98012.75;4794049;30;19981;-71
2022/07/15 14:12:58;;;;;;;;;;;;;;;34.76;37.79;98010.56;4808161;29;19960;-71
2022/07/15 14:15:25;;;;;;;;;;;;;;;34.78;39.34;98023.16;4806616;29;20328;-71
2022/07/15 14:17:55;;;;;;;;;;;;;;;34.77;38.83;98029.56;4784508;30;19951;-71
2022/07/15 14:20:22;;;;;;;;;;;;;;;34.80;39.65;98013.88;4797072;29;19973;-71
2022/07/15 14:22:50;;;;;;;;;;;;;;;34.81;38.22;98021.25;4795922;29;19954;-71
2022/07/15 14:25:18;;;;;;;;;;;;;;;34.76;37.85;98022.19;4801335;29;20001;-71
2022/07/15 14:27:45;;;;;;;;;;;;;;;34.76;37.81;98025.09;4796617;29;19953;-71
2022/07/15 14:30:13;;;;;;;;;;;;;;;34.67;37.17;98022.69;4798842;29;19963;-71
2022/07/15 14:32:40;;;;;;;;;;;;;;;34.72;37.47;98021.78;4793717;29;19950;-71
2022/07/15 14:35:09;;;;;;;;;;;;;;;34.64;35.81;98015.13;4797932;29;19957;-70
2022/07/15 14:37:36;;;;;;;;;;;;;;;34.59;36.09;98010.25;4794342;29;20339;-71
2022/07/15 14:40:05;;;;;;;;;;;;;;;34.57;36.04;98010.03;4803004;29;20255;-71
2022/07/15 14:42:32;;;;;;;;;;;;;;;34.64;36.60;98006.41;4800558;29;20271;-71
2022/07/15 14:45:00;;;;;;;;;;;;;;;34.60;37.09;97997.28;4794260;29;19956;-71
2022/07/15 14:47:27;;;;;;;;;;;;;;;34.57;37.58;97990.50;4798958;29;19959;-71
2022/07/15 14:49:54;;;;;;;;;;;;;;;34.60;38.45;97992.25;4786037;29;19960;-71
2022/07/15 14:52:22;;;;;;;;;;;;;;;34.57;39.36;97995.50;4794440;29;20249;-71
2022/07/15 14:54:50;;;;;;;;;;;;;;;34.57;39.35;97992.59;4794425;29;20355;-71
2022/07/15 14:57:17;;;;;;;;;;;;;;;34.57;38.79;97989.72;4797462;29;20568;-71
2022/07/15 14:59:44;;;;;;;;;;;;;;;34.47;40.84;97979.91;4793954;29;19980;-71
2022/07/15 15:02:12;;;;;;;;;;;;;;;34.34;40.11;97984.47;4797635;29;20267;-71
2022/07/15 15:04:39;;;;;;;;;;;;;;;34.40;40.89;97990.13;4790887;29;19965;-71
2022/07/15 15:07:06;;;;;;;;;;;;;;;34.42;42.32;97987.44;4793239;29;19954;-71
2022/07/15 15:09:34;;;;;;;;;;;;;;;34.36;43.03;97990.47;4790218;30;20244;-71
2022/07/15 15:12:01;;;;;;;;;;;;;;;34.38;42.41;97987.78;4799651;29;19959;-71
2022/07/15 15:14:34;;;;;;;;;;;;;;;34.31;41.99;97988.50;4799858;29;19953;-71
2022/07/15 15:17:01;;;;;;;;;;;;;;;34.31;43.52;97990.63;4802420;29;19958;-71
2022/07/15 15:19:29;;;;;;;;;;;;;;;34.25;42.02;97982.06;4809342;29;19949;-70
2022/07/15 15:21:57;;;;;;;;;;;;;;;34.16;43.34;97985.44;4805476;29;20358;-71
2022/07/15 15:24:24;;;;;;;;;;;;;;;34.14;44.59;97975.75;4807075;29;19976;-70
2022/07/15 15:26:52;;;;;;;;;;;;;;;34.07;45.35;97985.97;4795230;29;19955;-71
2022/07/15 15:29:20;;;;;;;;;;;;;;;34.09;45.14;97991.97;4793679;29;19964;-71
2022/07/15 15:31:48;;;;;;;;;;;;;;;34.04;43.43;97986.28;4793631;29;19968;-71
2022/07/15 15:34:16;;;;;;;;;;;;;;;34.05;44.06;97979.94;4794746;29;19954;-71
2022/07/15 15:36:44;;;;;;;;;;;;;;;33.94;44.27;97983.09;4790776;29;19953;-71
2022/07/15 15:39:12;;;;;;;;;;;;;;;33.90;43.64;97973.97;4790600;29;19963;-72
2022/07/15 15:41:39;;;;;;;;;;;;;;;33.83;44.41;97971.75;4791307;29;20250;-71
2022/07/15 15:44:07;;;;;;;;;;;;;;;33.79;45.32;97974.25;4791619;29;19957;-71
2022/07/15 15:46:34;;;;;;;;;;;;;;;33.74;44.03;97978.06;4790904;30;19955;-70
2022/07/15 15:49:02;;;;;;;;;;;;;;;33.75;45.63;97968.00;4790544;30;19950;-71
2022/07/15 15:51:29;;;;;;;;;;;;;;;33.65;45.57;97975.63;4790623;30;20235;-71
2022/07/15 15:53:56;;;;;;;;;;;;;;;33.60;47.08;97973.66;4790957;30;19989;-71
2022/07/15 15:56:24;;;;;;;;;;;;;;;33.56;45.57;97968.19;4792301;30;19963;-71
2022/07/15 15:58:51;;;;;;;;;;;;;;;33.56;46.64;97971.09;4792489;30;19964;-71
2022/07/15 16:01:18;;;;;;;;;;;;;;;33.46;47.24;97966.28;4806584;29;19967;-71
2022/07/15 16:03:46;;;;;;;;;;;;;;;33.46;46.46;97966.28;4779153;29;19953;-71
2022/07/15 16:06:13;;;;;;;;;;;;;;;33.44;45.62;97966.06;4792428;30;19961;-71
2022/07/15 16:08:44;;;;;;;;;;;;;;;33.42;45.43;97965.88;4784706;30;19985;-70
2022/07/15 16:11:12;;;;;;;;;;;;;;;33.35;46.51;97966.56;4788352;29;19962;-70
2022/07/15 16:13:39;;;;;;;;;;;;;;;33.34;46.16;97959.19;4791782;29;19947;-70
2022/07/15 16:16:06;;;;;;;;;;;;;;;33.28;45.82;97958.56;4777174;30;19962;-70
2022/07/15 16:18:34;;;;;;;;;;;;;;;33.19;47.32;97959.00;4791919;30;19955;-70
2022/07/15 16:21:01;;;;;;;;;;;;;;;33.22;49.50;97955.78;4791702;30;20366;-71
2022/07/15 16:23:28;;;;;;;;;;;;;;;33.11;46.37;97961.81;4791722;30;19988;-71
2022/07/15 16:25:55;;;;;;;;;;;;;;;33.03;47.40;97970.41;4792093;29;19952;-71
2022/07/15 16:28:23;;;;;;;;;;;;;;;33.00;46.83;97973.59;4793348;29;20363;-71
2022/07/15 16:30:50;;;;;;;;;;;;;;;32.86;48.37;97967.06;4798890;29;19965;-71
2022/07/15 16:33:18;;;;;;;;;;;;;;;32.82;47.42;97963.69;4778943;29;20435;-71
2022/07/15 16:35:45;;;;;;;;;;;;;;;32.74;47.38;97965.72;4773959;30;19948;-71
2022/07/15 16:38:13;;;;;;;;;;;;;;;32.69;46.24;97966.63;4774246;29;19960;-71
2022/07/15 16:40:40;;;;;;;;;;;;;;;32.64;46.82;97969.63;4779552;29;19966;-71
2022/07/15 16:43:08;;;;;;;;;;;;;;;32.54;47.79;97977.97;4791665;30;20675;-71
2022/07/15 16:45:36;;;;;;;;;;;;;;;32.51;48.07;97966.69;4791603;30;19953;-71
2022/07/15 16:48:04;;;;;;;;;;;;;;;32.52;46.46;97968.28;4786042;29;19954;-71
2022/07/15 16:50:31;;;;;;;;;;;;;;;32.42;47.09;97960.00;4801978;29;19948;-71
2022/07/15 16:52:59;;;;;;;;;;;;;;;32.42;47.39;97959.22;4783484;30;20032;-71
2022/07/15 16:55:26;;;;;;;;;;;;;;;32.36;47.94;97952.72;4787249;30;19953;-71
2022/07/15 16:57:53;;;;;;;;;;;;;;;32.31;48.83;97957.28;4791385;30;19965;-71
2022/07/15 17:00:21;;;;;;;;;;;;;;;32.24;47.50;97954.28;4791294;30;19953;-71
2022/07/15 17:02:50;;;;;;;;;;;;;;;32.21;48.22;97953.28;4791340;29;19969;-71
2022/07/15 17:05:18;;;;;;;;;;;;;;;32.10;49.84;97956.38;4781752;30;19956;-71
2022/07/15 17:07:45;;;;;;;;;;;;;;;32.05;48.80;97962.25;4790284;30;19954;-71
2022/07/15 17:10:12;;;;;;;;;;;;;;;31.99;49.13;97964.44;4780192;29;19960;-71
2022/07/15 17:12:39;;;;;;;;;;;;;;;31.96;48.94;97959.75;4787980;29;19965;-71
2022/07/15 17:15:07;;;;;;;;;;;;;;;31.87;48.13;97955.16;4800020;29;19964;-71
2022/07/15 17:17:35;;;;;;;;;;;;;;;31.82;48.09;97959.69;4788007;29;19985;-71
2022/07/15 17:20:05;;;;;;;;;;;;;;;31.80;49.65;97961.59;4793239;29;19947;-71
2022/07/15 17:22:32;;;;;;;;;;;;;;;31.74;47.76;97966.69;4789892;29;19968;-71
2022/07/15 17:24:59;;;;;;;;;;;;;;;31.66;48.72;97957.88;4788522;29;19980;-71
2022/07/15 17:27:27;;;;;;;;;;;;;;;31.65;48.10;97958.41;4788917;30;20369;-71
2022/07/15 17:29:54;;;;;;;;;;;;;;;31.61;46.24;97950.06;4790567;30;19953;-71
2022/07/15 17:32:21;;;;;;;;;;;;;;;31.58;47.54;97965.63;4789635;29;19952;-71
2022/07/15 17:34:48;;;;;;;;;;;;;;;31.57;47.54;97958.25;4791121;30;19957;-71
2022/07/15 17:37:16;;;;;;;;;;;;;;;31.49;47.94;97968.13;4791301;30;19956;-71
2022/07/15 17:39:43;;;;;;;;;;;;;;;31.34;48.48;97968.56;4791001;30;19960;-71
2022/07/15 17:42:10;;;;;;;;;;;;;;;31.36;48.80;97968.00;4790753;30;20262;-70
2022/07/15 17:44:37;;;;;;;;;;;;;;;31.27;50.28;97963.44;4790256;30;19957;-71
2022/07/15 17:47:06;;;;;;;;;;;;;;;31.22;50.03;97970.06;4771938;30;19955;-71
2022/07/15 17:49:33;;;;;;;;;;;;;;;31.19;48.03;97971.16;4790583;30;19956;-71
2022/07/15 17:52:02;;;;;;;;;;;;;;;31.14;49.66;97974.88;4790897;30;20339;-71
2022/07/15 17:54:30;;;;;;;;;;;;;;;31.06;49.66;97968.94;4790776;30;20371;-71
2022/07/15 17:56:57;;;;;;;;;;;;;;;30.97;52.34;97962.78;4790889;29;19957;-71
2022/07/15 17:59:25;;;;;;;;;;;;;;;30.92;54.44;97963.63;4790272;30;19958;-71
2022/07/15 18:01:52;;;;;;;;;;;;;;;30.87;51.02;97967.34;4790809;29;20033;-71
2022/07/15 18:04:19;;;;;;;;;;;;;;;30.81;51.75;97969.53;4790579;30;19949;-71
2022/07/15 18:06:49;;;;;;;;;;;;;;;30.74;53.55;97965.13;4788251;30;19963;-71
2022/07/15 18:09:17;;;;;;;;;;;;;;;30.65;51.40;97959.72;4789921;30;19963;-71
2022/07/15 18:11:44;;;;;;;;;;;;;;;30.62;52.49;97963.69;4790474;30;20241;-70
2022/07/15 18:14:13;;;;;;;;;;;;;;;30.49;53.87;97961.47;4789269;30;19957;-71
2022/07/15 18:16:41;;;;;;;;;;;;;;;30.50;54.21;97965.94;4782938;29;19955;-71
2022/07/15 18:19:09;;;;;;;;;;;;;;;30.45;52.87;97972.53;4785380;30;20272;-71
2022/07/15 18:21:37;;;;;;;;;;;;;;;30.38;54.21;97966.59;4784080;29;19955;-71
2022/07/15 18:24:05;;;;;;;;;;;;;;;30.26;54.82;97971.66;4791890;29;19981;-71
2022/07/15 18:26:33;;;;;;;;;;;;;;;30.22;52.96;97974.06;4792062;29;19965;-71
2022/07/15 18:29:01;;;;;;;;;;;;;;;30.19;53.30;97983.78;4790382;30;20365;-71
2022/07/15 18:31:28;;;;;;;;;;;;;;;30.13;53.77;97982.25;4789889;29;19955;-71